Time;durP1;ratioP1;P1;durP2;ratioP2;P2;SDS_P1;SDS_P2;PMS_P1;PMS_P2;Temp;Humidity;BMP_temperature;BMP_pressure;BME280_temperature;BME280_humidity;BME280_pressure;Samples;Min_cycle;Max_cycle;Signal;HPM_P1;HPM_P2
2023/08/10 00:00:12;;;;;;;9.32;2.60;;;10.40;100.00;;;;;;5005969;28;20054;-76
2023/08/10 00:02:39;;;;;;;23.35;3.13;;;10.40;100.00;;;;;;4993677;28;20073;-77
2023/08/10 00:05:07;;;;;;;16.33;3.05;;;10.30;100.00;;;;;;4986444;28;20061;-77
2023/08/10 00:07:34;;;;;;;9.90;2.63;;;10.30;100.00;;;;;;5006208;28;20576;-77
2023/08/10 00:10:03;;;;;;;12.93;2.58;;;10.20;100.00;;;;;;5004532;28;20049;-77
2023/08/10 00:12:31;;;;;;;11.10;2.80;;;10.20;100.00;;;;;;5005044;28;20610;-77
2023/08/10 00:14:58;;;;;;;20.85;3.45;;;10.20;100.00;;;;;;5005532;28;20147;-77
2023/08/10 00:17:25;;;;;;;16.88;2.78;;;10.10;100.00;;;;;;4988037;28;20081;-77
2023/08/10 00:19:52;;;;;;;10.38;2.35;;;10.10;100.00;;;;;;5003981;28;20140;-77
2023/08/10 00:22:18;;;;;;;11.60;2.90;;;10.10;100.00;;;;;;5005265;28;20042;-77
2023/08/10 00:24:47;;;;;;;11.98;3.10;;;10.10;100.00;;;;;;5006264;28;20081;-76
2023/08/10 00:27:14;;;;;;;12.07;3.03;;;10.10;100.00;;;;;;5006267;28;20053;-77
2023/08/10 00:29:41;;;;;;;12.77;2.85;;;10.10;100.00;;;;;;4984935;28;20057;-77
2023/08/10 00:32:08;;;;;;;10.13;3.00;;;10.10;100.00;;;;;;4988836;28;20060;-77
2023/08/10 00:34:34;;;;;;;32.95;3.40;;;10.10;100.00;;;;;;5003170;28;20471;-77
2023/08/10 00:37:03;;;;;;;13.32;2.88;;;10.10;100.00;;;;;;5009946;28;20107;-77
2023/08/10 00:39:30;;;;;;;11.68;2.88;;;10.20;100.00;;;;;;5009765;28;20046;-77
2023/08/10 00:41:57;;;;;;;14.00;2.72;;;10.20;100.00;;;;;;5007619;28;20046;-77
2023/08/10 00:44:24;;;;;;;13.38;2.75;;;10.20;100.00;;;;;;4992345;28;20113;-77
2023/08/10 00:46:51;;;;;;;20.40;2.83;;;10.20;100.00;;;;;;5009565;28;20049;-77
2023/08/10 00:49:18;;;;;;;8.90;2.67;;;10.20;100.00;;;;;;5009173;28;20104;-77
2023/08/10 00:51:46;;;;;;;21.50;3.40;;;10.20;100.00;;;;;;5008453;28;20431;-77
2023/08/10 00:54:13;;;;;;;9.45;2.72;;;10.30;100.00;;;;;;5010018;28;20140;-77
2023/08/10 00:56:40;;;;;;;9.10;2.47;;;10.30;100.00;;;;;;5009758;28;20387;-77
2023/08/10 00:59:08;;;;;;;11.82;2.85;;;10.30;100.00;;;;;;5009381;28;20085;-77
2023/08/10 01:01:35;;;;;;;19.75;2.95;;;10.40;100.00;;;;;;5008936;28;20054;-77
2023/08/10 01:04:02;;;;;;;17.70;2.95;;;10.40;100.00;;;;;;5008715;28;20058;-77
2023/08/10 01:06:47;;;;;;;17.70;3.15;;;10.40;100.00;;;;;;5009322;28;20058;-77
2023/08/10 01:09:23;;;;;;;19.77;2.95;;;10.50;100.00;;;;;;5009729;28;20067;-77
2023/08/10 01:12:04;;;;;;;21.70;3.40;;;10.60;100.00;;;;;;5005337;28;20092;-77
2023/08/10 01:14:49;;;;;;;33.58;3.70;;;10.60;100.00;;;;;;5004287;28;20045;-77
2023/08/10 01:17:22;;;;;;;15.63;3.17;;;10.70;100.00;;;;;;5001104;28;20060;-76
2023/08/10 01:19:52;;;;;;;18.83;3.75;;;10.80;100.00;;;;;;5007237;28;20050;-77
2023/08/10 01:22:37;;;;;;;18.30;3.30;;;10.80;100.00;;;;;;5001663;28;20053;-77
2023/08/10 01:25:06;;;;;;;14.10;3.75;;;10.90;100.00;;;;;;4991538;28;20522;-77
2023/08/10 01:27:34;;;;;;;18.85;3.65;;;11.00;100.00;;;;;;5009266;28;20152;-77
2023/08/10 01:30:03;;;;;;;17.30;2.53;;;11.00;100.00;;;;;;4990839;28;20155;-77
2023/08/10 01:32:32;;;;;;;11.68;3.10;;;11.10;100.00;;;;;;4993636;28;20048;-77
2023/08/10 01:35:00;;;;;;;9.63;2.70;;;11.10;100.00;;;;;;5003585;28;20050;-77
2023/08/10 01:37:27;;;;;;;17.75;4.20;;;11.20;100.00;;;;;;5005239;28;20217;-77
2023/08/10 01:39:55;;;;;;;12.77;2.50;;;11.20;99.90;;;;;;5009040;28;20081;-77
2023/08/10 01:42:25;;;;;;;24.98;3.63;;;11.30;99.00;;;;;;5008644;28;20497;-77
2023/08/10 01:44:52;;;;;;;21.17;2.70;;;11.30;99.40;;;;;;5005859;28;20153;-77
2023/08/10 01:47:25;;;;;;;18.55;2.95;;;11.30;99.70;;;;;;5002937;28;20078;-77
2023/08/10 01:49:59;;;;;;;13.60;2.75;;;11.30;99.50;;;;;;5010510;28;21934;-77
2023/08/10 01:52:31;;;;;;;12.30;2.97;;;11.30;99.30;;;;;;5001526;28;20052;-77
2023/08/10 01:54:59;;;;;;;12.68;2.88;;;11.40;99.30;;;;;;5005829;28;20193;-77
2023/08/10 01:57:28;;;;;;;12.23;3.05;;;11.40;99.20;;;;;;5003503;28;20057;-77
2023/08/10 01:59:57;;;;;;;13.52;2.40;;;11.40;98.90;;;;;;5009250;28;20057;-77
2023/08/10 02:02:24;;;;;;;17.38;2.92;;;11.40;98.40;;;;;;5008839;28;20050;-77
2023/08/10 02:04:51;;;;;;;18.20;2.80;;;11.40;98.70;;;;;;5009652;28;20053;-77
2023/08/10 02:07:18;;;;;;;12.93;2.42;;;11.40;98.20;;;;;;4997744;28;20112;-77
2023/08/10 02:09:45;;;;;;;10.60;2.55;;;11.40;98.70;;;;;;4991197;28;20762;-77
2023/08/10 02:12:12;;;;;;;14.10;3.65;;;11.40;98.70;;;;;;5007421;28;20042;-77
2023/08/10 02:14:39;;;;;;;14.32;2.50;;;11.40;98.60;;;;;;5007314;28;20065;-77
2023/08/10 02:17:06;;;;;;;19.73;2.92;;;11.40;98.30;;;;;;4991958;28;20765;-77
2023/08/10 02:19:33;;;;;;;20.45;2.97;;;11.40;98.70;;;;;;5009130;28;20129;-77
2023/08/10 02:22:00;;;;;;;9.43;2.55;;;11.40;98.40;;;;;;4991313;28;20092;-77
2023/08/10 02:24:28;;;;;;;10.77;2.00;;;11.40;98.50;;;;;;5008840;28;20065;-77
2023/08/10 02:26:55;;;;;;;11.23;2.80;;;11.40;98.40;;;;;;5007822;28;20049;-77
2023/08/10 02:29:22;;;;;;;18.90;3.03;;;11.40;97.80;;;;;;5007856;28;20168;-77
2023/08/10 02:31:49;;;;;;;18.15;2.40;;;11.40;97.60;;;;;;4995164;28;20125;-77
2023/08/10 02:34:16;;;;;;;15.85;2.60;;;11.40;97.90;;;;;;4999336;28;20396;-77
2023/08/10 02:36:43;;;;;;;13.40;2.65;;;11.40;97.90;;;;;;5005053;28;20501;-77
2023/08/10 02:39:10;;;;;;;15.10;3.03;;;11.40;97.50;;;;;;5005159;28;20054;-77
2023/08/10 02:41:37;;;;;;;10.90;2.15;;;11.40;97.10;;;;;;5007861;28;20081;-77
2023/08/10 02:44:04;;;;;;;16.55;2.58;;;11.40;96.90;;;;;;5007939;28;20157;-77
2023/08/10 02:46:32;;;;;;;10.90;2.30;;;11.40;97.00;;;;;;5003851;28;20755;-77
2023/08/10 02:48:59;;;;;;;18.00;2.63;;;11.40;97.20;;;;;;5004863;28;20049;-77
2023/08/10 02:51:26;;;;;;;8.20;2.08;;;11.40;96.70;;;;;;5006349;28;20136;-77
2023/08/10 02:53:52;;;;;;;18.02;2.65;;;11.40;96.50;;;;;;5003723;28;20054;-77
2023/08/10 02:56:19;;;;;;;16.48;2.67;;;11.40;97.40;;;;;;5003555;28;20128;-77
2023/08/10 02:58:46;;;;;;;12.70;2.65;;;11.40;96.80;;;;;;4992879;28;20690;-77
2023/08/10 03:01:14;;;;;;;17.48;3.10;;;11.40;97.30;;;;;;5007031;28;20128;-77
2023/08/10 03:03:42;;;;;;;9.43;2.13;;;11.40;97.60;;;;;;5007427;28;20054;-77
2023/08/10 03:06:09;;;;;;;14.55;2.63;;;11.40;97.10;;;;;;5000565;28;20797;-77
2023/08/10 03:08:35;;;;;;;10.02;2.28;;;11.40;97.60;;;;;;5006065;28;20134;-77
2023/08/10 03:11:03;;;;;;;11.15;2.45;;;11.40;97.70;;;;;;5005170;28;20046;-77
2023/08/10 03:13:30;;;;;;;7.53;2.22;;;11.40;97.90;;;;;;5003282;28;20046;-77
2023/08/10 03:15:57;;;;;;;10.48;2.72;;;11.40;97.50;;;;;;4997926;28;20871;-76
2023/08/10 03:18:24;;;;;;;13.00;2.33;;;11.30;97.40;;;;;;5001653;28;20832;-77
2023/08/10 03:20:50;;;;;;;19.10;2.95;;;11.30;97.30;;;;;;5003185;28;20125;-77
2023/08/10 03:23:17;;;;;;;20.70;3.10;;;11.30;97.70;;;;;;5007450;28;20058;-77
2023/08/10 03:25:44;;;;;;;13.73;2.45;;;11.40;97.90;;;;;;5006267;28;20049;-77
2023/08/10 03:28:11;;;;;;;16.10;2.15;;;11.40;97.30;;;;;;5005113;28;20152;-76
2023/08/10 03:30:40;;;;;;;14.68;2.45;;;11.40;97.50;;;;;;5004434;28;20139;-76
2023/08/10 03:33:07;;;;;;;8.77;2.33;;;11.40;97.50;;;;;;5012846;28;20064;-77
2023/08/10 03:35:34;;;;;;;9.82;2.25;;;11.40;97.20;;;;;;5004936;28;20714;-77
2023/08/10 03:38:01;;;;;;;10.02;2.08;;;11.40;97.50;;;;;;5004729;28;20081;-77
2023/08/10 03:40:27;;;;;;;15.32;2.20;;;11.40;97.90;;;;;;5005908;28;20124;-77
2023/08/10 03:42:55;;;;;;;14.57;2.70;;;11.40;97.50;;;;;;5001049;28;20046;-76
2023/08/10 03:45:21;;;;;;;14.50;2.58;;;11.50;97.80;;;;;;5009721;28;20723;-76
2023/08/10 03:47:48;;;;;;;16.38;2.63;;;11.50;97.60;;;;;;4987462;28;20046;-77
2023/08/10 03:50:15;;;;;;;17.88;2.72;;;11.50;97.40;;;;;;5004296;28;20058;-77
2023/08/10 03:52:42;;;;;;;10.73;2.63;;;11.40;97.40;;;;;;5005449;28;20140;-77
2023/08/10 03:55:09;;;;;;;22.17;3.03;;;11.50;97.70;;;;;;5005348;28;20137;-77
2023/08/10 03:57:36;;;;;;;15.45;2.53;;;11.50;98.10;;;;;;5005640;28;20052;-77
2023/08/10 04:00:05;;;;;;;19.60;2.20;;;11.50;97.60;;;;;;5004357;28;20050;-77
2023/08/10 04:02:32;;;;;;;17.70;2.72;;;11.50;97.40;;;;;;4999889;28;20050;-77
2023/08/10 04:04:59;;;;;;;19.20;2.75;;;11.50;97.90;;;;;;5000586;28;20049;-77
2023/08/10 04:07:26;;;;;;;14.18;2.22;;;11.50;97.80;;;;;;5000022;28;20445;-77
2023/08/10 04:09:54;;;;;;;9.75;2.65;;;11.50;98.00;;;;;;5006024;28;20141;-77
2023/08/10 04:12:20;;;;;;;11.23;2.60;;;11.50;96.60;;;;;;5002208;28;20038;-77
2023/08/10 04:14:47;;;;;;;10.40;2.25;;;11.60;97.50;;;;;;5005968;28;20387;-77
2023/08/10 04:17:17;;;;;;;18.08;2.78;;;11.60;97.00;;;;;;5005277;28;20046;-77
2023/08/10 04:19:44;;;;;;;10.07;2.30;;;11.60;97.60;;;;;;5007031;28;20069;-77
2023/08/10 04:22:11;;;;;;;23.73;2.67;;;11.60;97.40;;;;;;5005221;28;20085;-77
2023/08/10 04:24:38;;;;;;;10.35;3.03;;;11.60;97.10;;;;;;5003785;28;20446;-77
2023/08/10 04:27:05;;;;;;;14.35;2.45;;;11.60;97.70;;;;;;5005697;28;20122;-77
2023/08/10 04:29:32;;;;;;;13.57;2.30;;;11.60;97.00;;;;;;5005900;28;20050;-77
2023/08/10 04:31:59;;;;;;;12.43;2.05;;;11.60;97.00;;;;;;5004967;28;20121;-77
2023/08/10 04:34:26;;;;;;;11.30;2.63;;;11.70;97.60;;;;;;4987641;28;20046;-77
2023/08/10 04:36:53;;;;;;;12.50;2.65;;;11.70;97.00;;;;;;4986058;28;20042;-77
2023/08/10 04:39:20;;;;;;;13.55;2.97;;;11.70;97.60;;;;;;5004628;28;20834;-77
2023/08/10 04:41:47;;;;;;;13.10;2.58;;;11.70;96.80;;;;;;5004234;28;20139;-77
2023/08/10 04:44:14;;;;;;;11.45;2.10;;;11.80;97.30;;;;;;5004103;28;20058;-77
2023/08/10 04:46:40;;;;;;;11.80;2.53;;;11.80;97.40;;;;;;4999739;28;20606;-78
2023/08/10 04:49:07;;;;;;;10.50;2.63;;;11.80;97.50;;;;;;5004057;28;20053;-77
2023/08/10 04:51:34;;;;;;;25.48;4.70;;;11.80;96.90;;;;;;4996193;28;20753;-77
2023/08/10 04:54:01;;;;;;;20.25;3.00;;;11.80;96.90;;;;;;4995614;28;20135;-77
2023/08/10 04:56:28;;;;;;;15.27;2.97;;;11.80;97.20;;;;;;5005341;28;20096;-77
2023/08/10 04:58:55;;;;;;;15.73;2.90;;;11.90;97.60;;;;;;5004727;28;20046;-77
2023/08/10 05:01:23;;;;;;;16.80;2.70;;;11.90;97.30;;;;;;5004639;28;20518;-77
2023/08/10 05:03:50;;;;;;;11.68;2.72;;;11.90;97.70;;;;;;5004996;28;20058;-77
2023/08/10 05:06:17;;;;;;;13.13;2.80;;;12.00;97.80;;;;;;5005813;28;20046;-77
2023/08/10 05:08:44;;;;;;;9.55;2.53;;;12.00;97.70;;;;;;5005505;28;20062;-77
2023/08/10 05:11:10;;;;;;;17.23;3.38;;;12.10;97.50;;;;;;4999333;28;20081;-77
2023/08/10 05:13:37;;;;;;;13.07;2.78;;;12.00;97.10;;;;;;4986277;28;20057;-77
2023/08/10 05:16:04;;;;;;;14.32;3.00;;;12.10;96.80;;;;;;4987207;28;20053;-77
2023/08/10 05:18:31;;;;;;;14.65;2.95;;;12.20;97.40;;;;;;4986514;28;20074;-77
2023/08/10 05:21:02;;;;;;;22.23;3.67;;;12.20;96.70;;;;;;5006833;28;20050;-77
2023/08/10 05:23:29;;;;;;;9.32;2.45;;;12.20;95.70;;;;;;5003243;28;20733;-73
2023/08/10 05:25:56;;;;;;;9.60;3.08;;;12.30;96.50;;;;;;5006155;28;20123;-75
2023/08/10 05:28:23;;;;;;;8.15;3.25;;;12.30;96.80;;;;;;5007057;28;20430;-78
2023/08/10 05:30:50;;;;;;;19.52;2.90;;;12.40;96.10;;;;;;5013380;28;20762;-78
2023/08/10 05:33:17;;;;;;;13.45;2.60;;;12.40;96.20;;;;;;5009996;28;20163;-77
2023/08/10 05:35:46;;;;;;;11.05;2.60;;;12.40;95.40;;;;;;5007072;28;20137;-77
2023/08/10 05:38:13;;;;;;;9.32;2.50;;;12.50;95.90;;;;;;5009806;28;20140;-78
2023/08/10 05:40:40;;;;;;;8.98;2.25;;;12.60;96.10;;;;;;5010256;28;20050;-78
2023/08/10 05:43:07;;;;;;;11.63;2.30;;;12.60;95.90;;;;;;4990878;28;20097;-78
2023/08/10 05:45:34;;;;;;;17.92;3.03;;;12.70;94.90;;;;;;4991717;28;20042;-75
2023/08/10 05:48:01;;;;;;;14.48;2.63;;;12.70;95.50;;;;;;4999752;28;20048;-76
2023/08/10 05:50:27;;;;;;;13.75;2.60;;;12.80;95.50;;;;;;5006836;28;20042;-75
2023/08/10 05:52:55;;;;;;;10.95;2.25;;;12.80;94.20;;;;;;5006203;28;20050;-78
2023/08/10 05:55:22;;;;;;;13.95;2.72;;;12.90;94.80;;;;;;5008569;28;20490;-78
2023/08/10 05:57:49;;;;;;;11.85;2.40;;;12.90;94.90;;;;;;5006001;28;20078;-78
2023/08/10 06:00:17;;;;;;;11.48;2.50;;;13.00;95.00;;;;;;5008118;28;20461;-78
2023/08/10 06:02:45;;;;;;;8.52;2.85;;;13.00;93.60;;;;;;5002315;28;20041;-78
2023/08/10 06:05:12;;;;;;;8.02;2.17;;;13.10;94.80;;;;;;5007205;28;20046;-78
2023/08/10 06:07:40;;;;;;;17.05;2.65;;;13.10;92.50;;;;;;5007238;28;20057;-79
2023/08/10 06:10:08;;;;;;;11.50;2.20;;;13.20;93.50;;;;;;5010812;28;20136;-80
2023/08/10 06:12:35;;;;;;;11.27;2.40;;;13.20;93.30;;;;;;5009140;28;20149;-79
2023/08/10 06:15:02;;;;;;;13.95;2.78;;;13.30;92.60;;;;;;5007181;28;20053;-80
2023/08/10 06:17:29;;;;;;;14.50;2.85;;;13.40;93.50;;;;;;4993617;28;20050;-79
2023/08/10 06:19:57;;;;;;;14.77;3.15;;;13.40;90.70;;;;;;4992389;28;20533;-87
2023/08/10 06:22:25;;;;;;;35.95;25.90;;;13.50;91.80;;;;;;5011471;28;20077;-81
2023/08/10 06:24:52;;;;;;;57.72;41.08;;;13.60;92.00;;;;;;5012495;28;20050;-85
2023/08/10 06:27:19;;;;;;;28.95;17.30;;;13.70;91.20;;;;;;5013422;28;20142;-87
2023/08/10 06:29:46;;;;;;;18.50;8.02;;;13.80;91.30;;;;;;4994673;28;20096;-83
2023/08/10 06:32:13;;;;;;;18.02;4.82;;;13.90;91.90;;;;;;4997086;28;20104;-81
2023/08/10 06:34:40;;;;;;;14.50;2.22;;;14.10;91.20;;;;;;4995299;28;20372;-83
2023/08/10 06:37:07;;;;;;;12.23;2.42;;;14.30;90.40;;;;;;4995321;28;20140;-84
2023/08/10 06:39:34;;;;;;;12.70;7.47;;;14.30;88.80;;;;;;5010177;28;20426;-79
2023/08/10 06:42:01;;;;;;;13.98;8.07;;;14.50;90.30;;;;;;4990766;28;20053;-78
2023/08/10 06:44:29;;;;;;;11.23;3.92;;;14.60;89.00;;;;;;4993201;28;20053;-80
2023/08/10 06:46:56;;;;;;;20.48;3.75;;;14.60;88.70;;;;;;5005945;28;20549;-83
2023/08/10 06:49:24;;;;;;;14.77;2.72;;;14.70;88.90;;;;;;4998734;28;20144;-80
2023/08/10 06:51:51;;;;;;;11.25;1.88;;;14.70;87.10;;;;;;5000094;28;20041;-81
2023/08/10 06:54:18;;;;;;;8.75;2.17;;;14.70;86.30;;;;;;4993098;28;20046;-84
2023/08/10 06:56:45;;;;;;;16.88;2.17;;;14.70;85.10;;;;;;5008523;28;20189;-84
2023/08/10 06:59:13;;;;;;;10.05;1.85;;;14.80;84.10;;;;;;5008596;28;20053;-85
2023/08/10 07:01:42;;;;;;;11.02;1.90;;;14.90;85.40;;;;;;5010958;28;20046;-85
2023/08/10 07:04:09;;;;;;;12.48;1.90;;;15.00;86.60;;;;;;5009528;28;20057;-80
2023/08/10 07:06:36;;;;;;;12.63;1.85;;;15.20;85.50;;;;;;5009229;28;20050;-81
2023/08/10 07:09:03;;;;;;;13.85;1.88;;;15.20;84.40;;;;;;5010781;28;20108;-81
2023/08/10 07:11:31;;;;;;;8.77;1.75;;;15.20;84.30;;;;;;5009384;28;20053;-81
2023/08/10 07:13:58;;;;;;;10.75;2.45;;;15.40;83.00;;;;;;5006031;28;20457;-79
2023/08/10 07:16:25;;;;;;;9.25;2.10;;;15.50;83.50;;;;;;5011641;28;20715;-80
2023/08/10 07:18:52;;;;;;;16.38;2.63;;;15.80;85.70;;;;;;5012168;28;20121;-81
2023/08/10 07:21:20;;;;;;;12.32;2.03;;;16.10;83.00;;;;;;5006987;28;20780;-81
2023/08/10 07:23:48;;;;;;;12.85;1.90;;;16.20;80.40;;;;;;5011055;28;21090;-83
2023/08/10 07:26:15;;;;;;;9.70;2.00;;;16.00;80.80;;;;;;5008697;28;20042;-83
2023/08/10 07:28:43;;;;;;;7.85;1.75;;;16.00;82.40;;;;;;5005532;28;20065;-80
2023/08/10 07:31:10;;;;;;;8.50;1.60;;;16.00;80.30;;;;;;5009490;28;20569;-81
2023/08/10 07:33:37;;;;;;;9.25;1.67;;;16.00;81.60;;;;;;4993406;28;20063;-81
2023/08/10 07:36:04;;;;;;;15.90;1.83;;;16.00;80.70;;;;;;5005917;28;20132;-81
2023/08/10 07:38:32;;;;;;;15.75;2.03;;;16.20;79.20;;;;;;5002901;28;20042;-81
2023/08/10 07:40:58;;;;;;;13.63;1.70;;;16.30;81.70;;;;;;5010287;28;20606;-82
2023/08/10 07:43:25;;;;;;;23.10;2.35;;;16.50;80.30;;;;;;5013284;28;20462;-81
2023/08/10 07:45:52;;;;;;;14.82;2.22;;;16.40;79.70;;;;;;5008018;28;20096;-81
2023/08/10 07:48:19;;;;;;;6.93;2.10;;;16.60;79.50;;;;;;5012596;28;20125;-81
2023/08/10 07:50:47;;;;;;;7.32;1.65;;;16.60;80.20;;;;;;5003823;28;20061;-83
2023/08/10 07:53:13;;;;;;;10.45;1.40;;;16.90;80.10;;;;;;5003214;28;20046;-80
2023/08/10 07:55:40;;;;;;;18.55;2.05;;;17.10;79.20;;;;;;4992014;28;20413;-85
2023/08/10 07:58:07;;;;;;;13.88;2.20;;;17.30;75.70;;;;;;4985294;28;20176;-81
2023/08/10 08:00:38;;;;;;;13.75;1.90;;;17.30;77.10;;;;;;5000742;28;20045;-82
2023/08/10 08:03:05;;;;;;;9.52;2.15;;;17.50;77.00;;;;;;5003277;28;20128;-80
2023/08/10 08:05:37;;;;;;;21.85;1.95;;;17.70;77.40;;;;;;4988955;28;20050;-80
2023/08/10 08:08:05;;;;;;;4.82;1.15;;;17.90;75.80;;;;;;5011179;28;20739;-81
2023/08/10 08:10:32;;;;;;;10.70;1.95;;;18.10;73.80;;;;;;5003875;28;20082;-80
2023/08/10 08:13:08;;;;;;;17.25;1.67;;;18.20;74.40;;;;;;4988259;28;20635;-80
2023/08/10 08:15:35;;;;;;;10.93;1.88;;;18.40;74.30;;;;;;5006522;28;20100;-81
2023/08/10 08:18:40;;;;;;;16.35;2.55;;;18.50;71.30;;;;;;5004782;28;20050;-81
2023/08/10 08:21:08;;;;;;;8.05;1.73;;;18.50;73.10;;;;;;5007909;28;20080;-81
2023/08/10 08:23:35;;;;;;;12.60;1.50;;;18.60;72.60;;;;;;5006347;28;20646;-81
2023/08/10 08:26:05;;;;;;;11.10;2.20;;;18.50;71.10;;;;;;5004682;28;20198;-80
2023/08/10 08:28:32;;;;;;;9.57;1.67;;;18.60;73.50;;;;;;5006405;28;20054;-80
2023/08/10 08:31:01;;;;;;;8.38;2.17;;;18.70;73.50;;;;;;5006402;28;20434;-80
2023/08/10 08:33:29;;;;;;;11.48;1.65;;;18.60;72.30;;;;;;5001451;28;20042;-81
2023/08/10 08:35:56;;;;;;;8.65;1.77;;;18.90;70.60;;;;;;5007506;28;20107;-80
2023/08/10 08:38:24;;;;;;;13.00;1.80;;;19.10;72.50;;;;;;5011536;28;20055;-81
2023/08/10 08:40:53;;;;;;;11.05;1.40;;;19.20;69.60;;;;;;5005960;28;20514;-82
2023/08/10 08:43:19;;;;;;;18.63;1.65;;;19.10;69.20;;;;;;5005667;28;20148;-81
2023/08/10 08:45:47;;;;;;;10.50;1.73;;;19.20;68.80;;;;;;5000425;28;20993;-81
2023/08/10 08:48:15;;;;;;;10.48;1.92;;;19.50;70.10;;;;;;4988853;28;20082;-81
2023/08/10 08:50:45;;;;;;;17.40;1.52;;;19.60;69.60;;;;;;5005710;28;20123;-82
2023/08/10 08:53:12;;;;;;;9.77;1.10;;;19.70;68.00;;;;;;4992604;28;20096;-81
2023/08/10 08:55:40;;;;;;;10.05;2.03;;;19.70;68.80;;;;;;5009681;28;20164;-80
2023/08/10 08:58:08;;;;;;;13.88;2.00;;;19.90;67.70;;;;;;5007074;28;20138;-80
2023/08/10 09:00:35;;;;;;;12.15;1.60;;;20.30;66.50;;;;;;5008803;28;20057;-80
2023/08/10 09:03:02;;;;;;;3.97;1.30;;;20.30;67.50;;;;;;5004394;28;20060;-80
2023/08/10 09:05:30;;;;;;;11.07;1.35;;;20.60;66.60;;;;;;5011108;28;20698;-80
2023/08/10 09:07:58;;;;;;;8.02;1.52;;;21.00;67.00;;;;;;5007375;28;20541;-80
2023/08/10 09:10:25;;;;;;;13.57;1.70;;;21.20;64.60;;;;;;5016027;28;20488;-79
2023/08/10 09:12:52;;;;;;;7.00;1.23;;;21.60;64.50;;;;;;5005798;28;20050;-80
2023/08/10 09:15:19;;;;;;;12.95;1.15;;;22.20;64.10;;;;;;5006855;28;20049;-79
2023/08/10 09:17:47;;;;;;;5.53;1.20;;;22.60;64.60;;;;;;5005862;28;20065;-80
2023/08/10 09:20:23;;;;;;;6.85;1.23;;;22.70;58.20;;;;;;4988909;28;20101;-81
2023/08/10 09:22:53;;;;;;;;;;;22.00;57.30;;;;;;5005047;28;20058;-81
2023/08/10 09:25:20;;;;;;;6.10;1.33;;;21.90;59.50;;;;;;5009571;28;20544;-81
2023/08/10 09:27:49;;;;;;;13.18;1.65;;;22.20;59.40;;;;;;5005592;28;20053;-80
2023/08/10 09:30:17;;;;;;;5.55;1.42;;;22.00;59.40;;;;;;5007256;28;20066;-80
2023/08/10 09:32:44;;;;;;;9.25;1.40;;;21.60;59.40;;;;;;5006055;28;20584;-80
2023/08/10 09:35:14;;;;;;;7.03;1.45;;;21.30;58.70;;;;;;5007876;28;20050;-80
2023/08/10 09:37:41;;;;;;;10.73;1.42;;;21.20;61.20;;;;;;5011473;28;20037;-80
2023/08/10 09:40:11;;;;;;;7.53;1.77;;;20.90;61.90;;;;;;5009079;28;20057;-80
2023/08/10 09:42:39;;;;;;;8.25;1.27;;;20.90;63.10;;;;;;5007525;28;20830;-80
2023/08/10 09:45:11;;;;;;;10.55;1.45;;;20.60;61.20;;;;;;4993693;28;20054;-79
2023/08/10 09:47:42;;;;;;;4.40;1.08;;;20.50;61.30;;;;;;5007041;28;20056;-79
2023/08/10 09:50:14;;;;;;;10.32;1.45;;;20.30;62.40;;;;;;5001624;28;20050;-81
2023/08/10 09:52:42;;;;;;;5.28;1.40;;;20.10;63.60;;;;;;5006183;28;20475;-82
2023/08/10 09:55:10;;;;;;;6.72;1.30;;;20.00;63.10;;;;;;5005155;28;20399;-80
2023/08/10 09:57:44;;;;;;;6.25;1.50;;;19.60;64.00;;;;;;5002292;28;20057;-82
2023/08/10 10:00:18;;;;;;;10.55;1.50;;;19.50;64.30;;;;;;5009955;28;20046;-82
2023/08/10 10:02:46;;;;;;;10.82;1.55;;;19.10;62.80;;;;;;5006890;28;20085;-83
2023/08/10 10:05:17;;;;;;;4.68;1.20;;;19.10;62.40;;;;;;5004635;28;20059;-81
2023/08/10 10:08:04;;;;;;;9.80;1.40;;;19.00;63.90;;;;;;5010762;28;20065;-81
2023/08/10 10:10:35;;;;;;;11.00;1.45;;;18.70;64.80;;;;;;5009352;28;20108;-84
2023/08/10 10:13:06;;;;;;;9.02;1.27;;;18.30;64.50;;;;;;5012487;28;20088;-83
2023/08/10 10:15:35;;;;;;;8.07;1.13;;;18.00;66.10;;;;;;5015998;28;20104;-84
2023/08/10 10:18:03;;;;;;;17.05;2.00;;;18.20;68.00;;;;;;4996176;28;20041;-84
2023/08/10 10:20:31;;;;;;;17.83;1.85;;;18.20;69.40;;;;;;5011651;28;20045;-83
2023/08/10 10:22:58;;;;;;;7.35;1.45;;;18.20;67.90;;;;;;5013022;28;20049;-84
2023/08/10 10:25:25;;;;;;;11.38;1.33;;;18.30;70.00;;;;;;5015662;28;20112;-86
2023/08/10 10:27:52;;;;;;;10.05;1.60;;;18.60;69.70;;;;;;5008585;28;20764;-84
2023/08/10 10:30:23;;;;;;;8.60;1.52;;;18.70;66.90;;;;;;5013628;28;20128;-83
2023/08/10 10:32:51;;;;;;;6.25;1.30;;;18.70;66.80;;;;;;5011247;28;20041;-83
2023/08/10 10:35:23;;;;;;;5.25;1.55;;;19.10;67.60;;;;;;5002913;28;20057;-78
2023/08/10 10:37:58;;;;;;;9.50;1.73;;;19.40;65.00;;;;;;5008072;28;20046;-78
2023/08/10 10:40:27;;;;;;;13.73;1.70;;;19.60;64.70;;;;;;4989161;28;20046;-80
2023/08/10 10:43:07;;;;;;;15.73;1.40;;;19.80;64.80;;;;;;5005989;28;20701;-77
2023/08/10 10:45:35;;;;;;;12.00;1.40;;;19.70;65.10;;;;;;5011734;28;20056;-80
2023/08/10 10:48:04;;;;;;;11.48;1.38;;;19.60;65.50;;;;;;5014619;28;20125;-80
2023/08/10 10:50:32;;;;;;;24.30;1.45;;;19.80;63.70;;;;;;5005824;28;20054;-78
2023/08/10 10:53:15;;;;;;;9.68;1.20;;;19.70;66.20;;;;;;4999534;28;20050;-79
2023/08/10 10:55:46;;;;;;;9.23;1.42;;;19.80;63.70;;;;;;5005850;28;20085;-81
2023/08/10 10:58:14;;;;;;;10.02;1.70;;;19.70;63.70;;;;;;4995908;28;20126;-81
2023/08/10 11:00:43;;;;;;;8.93;1.50;;;19.90;64.20;;;;;;5008050;28;20509;-79
2023/08/10 11:03:15;;;;;;;11.05;1.55;;;19.80;62.00;;;;;;4994074;28;20133;-79
2023/08/10 11:05:41;;;;;;;11.30;1.75;;;19.60;64.50;;;;;;4994798;28;20577;-79
2023/08/10 11:08:08;;;;;;;6.00;1.77;;;19.80;65.10;;;;;;5019336;28;20327;-83
2023/08/10 11:10:37;;;;;;;14.13;2.13;;;19.80;63.00;;;;;;5008935;28;20057;-79
2023/08/10 11:13:09;;;;;;;8.82;1.70;;;19.80;63.50;;;;;;4999442;28;20058;-79
2023/08/10 11:15:38;;;;;;;10.82;1.63;;;20.10;63.50;;;;;;5007935;28;20129;-78
2023/08/10 11:18:11;;;;;;;14.68;1.90;;;20.50;63.50;;;;;;5009930;28;20085;-79
2023/08/10 11:20:43;;;;;;;9.32;1.38;;;20.70;65.60;;;;;;5008381;28;20042;-81
2023/08/10 11:23:10;;;;;;;7.72;1.13;;;22.60;59.50;;;;;;5005633;28;20054;-79
2023/08/10 11:25:48;;;;;;;10.73;1.15;;;24.30;57.20;;;;;;5005718;28;20042;-79
2023/08/10 11:28:20;;;;;;;7.47;1.42;;;24.70;52.70;;;;;;4989312;28;20064;-80
2023/08/10 11:30:48;;;;;;;12.65;1.83;;;24.30;51.50;;;;;;5010042;28;20536;-79
2023/08/10 11:33:16;;;;;;;10.27;1.50;;;23.80;53.90;;;;;;5004099;28;20119;-78
2023/08/10 11:35:49;;;;;;;9.55;1.73;;;23.00;53.00;;;;;;4990916;28;20546;-78
2023/08/10 11:38:16;;;;;;;9.15;1.13;;;22.70;57.30;;;;;;5005646;28;20116;-77
2023/08/10 11:40:44;;;;;;;13.02;1.48;;;22.40;57.30;;;;;;5002779;28;20041;-79
2023/08/10 11:43:15;;;;;;;10.30;1.25;;;22.20;55.80;;;;;;5005357;28;20057;-77
2023/08/10 11:45:42;;;;;;;10.90;1.70;;;22.30;57.20;;;;;;5005500;28;20103;-77
2023/08/10 11:48:11;;;;;;;8.48;1.77;;;22.10;58.10;;;;;;5005594;28;20049;-79
2023/08/10 11:50:39;;;;;;;15.13;1.25;;;22.20;57.90;;;;;;5004656;28;20148;-77
2023/08/10 11:53:15;;;;;;;8.73;1.30;;;22.20;57.20;;;;;;4988544;28;20045;-77
2023/08/10 11:55:42;;;;;;;9.15;1.67;;;22.50;57.50;;;;;;5001296;28;20053;-77
2023/08/10 11:58:10;;;;;;;7.53;1.48;;;22.50;55.70;;;;;;4988154;28;20061;-77
2023/08/10 12:00:39;;;;;;;9.68;1.88;;;22.20;57.00;;;;;;4990793;28;20049;-84
2023/08/10 12:03:07;;;;;;;8.57;1.73;;;21.50;57.50;;;;;;5006625;28;20570;-81
2023/08/10 12:05:44;;;;;;;7.03;1.25;;;21.10;56.50;;;;;;4992442;28;20054;-80
2023/08/10 12:08:18;;;;;;;9.70;1.95;;;20.80;57.20;;;;;;5007775;28;20058;-85
2023/08/10 12:10:58;;;;;;;9.43;1.40;;;20.40;59.00;;;;;;5011958;28;20104;-83
2023/08/10 12:13:25;;;;;;;8.15;1.45;;;20.30;59.80;;;;;;5009550;28;20060;-81
2023/08/10 12:15:53;;;;;;;7.72;1.58;;;20.20;61.80;;;;;;5009541;28;20128;-80
2023/08/10 12:18:22;;;;;;;18.63;1.80;;;20.20;62.60;;;;;;5010785;28;20080;-83
2023/08/10 12:20:52;;;;;;;7.35;1.50;;;20.10;63.70;;;;;;4996946;28;20042;-82
2023/08/10 12:23:20;;;;;;;8.40;1.63;;;20.30;62.90;;;;;;4992921;28;20141;-81
2023/08/10 12:25:48;;;;;;;7.72;1.40;;;20.40;61.50;;;;;;5010236;28;20085;-81
2023/08/10 12:28:17;;;;;;;8.73;1.50;;;20.70;61.80;;;;;;4995702;28;20658;-83
2023/08/10 12:30:44;;;;;;;9.07;1.60;;;21.50;61.30;;;;;;5002746;28;20049;-85
2023/08/10 12:33:12;;;;;;;8.75;1.65;;;23.20;57.90;;;;;;5014042;28;20041;-85
2023/08/10 12:35:39;;;;;;;14.45;1.88;;;25.00;52.10;;;;;;5014767;28;20038;-82
2023/08/10 12:38:07;;;;;;;7.20;1.75;;;25.70;51.10;;;;;;5001713;28;20091;-84
2023/08/10 12:40:34;;;;;;;6.68;2.10;;;25.80;51.30;;;;;;5011603;28;20140;-85
2023/08/10 12:43:01;;;;;;;13.02;2.15;;;25.40;51.70;;;;;;5010427;28;20057;-85